createdAt,value
2019-02-27T00:00:25.617Z,0
2019-02-27T00:01:26.242Z,0
2019-02-27T00:02:26.817Z,0
2019-02-27T00:03:29.095Z,0
2019-02-27T00:04:28.958Z,0
2019-02-27T00:05:29.534Z,0
2019-02-27T00:06:30.107Z,0
2019-02-27T00:07:30.733Z,0
2019-02-27T00:08:31.306Z,0
2019-02-27T00:09:32.850Z,0
2019-02-27T00:10:33.450Z,0
2019-02-27T00:11:34.027Z,0
2019-02-27T00:12:34.601Z,0
2019-02-27T00:13:35.175Z,0
2019-02-27T00:14:35.753Z,0
2019-02-27T00:15:38.066Z,0
2019-02-27T00:16:37.943Z,0
2019-02-27T00:17:38.636Z,0
2019-02-27T00:18:39.165Z,0
2019-02-27T00:19:39.738Z,0
2019-02-27T00:20:40.313Z,0
2019-02-27T00:21:43.480Z,0
2019-02-27T00:22:41.499Z,0
2019-02-27T00:23:42.074Z,0
2019-02-27T00:24:42.701Z,0
2019-02-27T00:25:43.328Z,0
2019-02-27T00:26:43.900Z,0
2019-02-27T00:27:48.835Z,0
2019-02-27T00:28:46.043Z,0
2019-02-27T00:29:46.617Z,0
2019-02-27T00:30:47.293Z,0
2019-02-27T00:31:47.865Z,0
2019-02-27T00:32:50.980Z,0
2019-02-27T00:33:50.158Z,0
2019-02-27T00:34:50.736Z,0
2019-02-27T00:35:51.311Z,0
2019-02-27T00:36:51.882Z,0
2019-02-27T00:37:52.718Z,0
2019-02-27T00:38:53.284Z,0
2019-02-27T00:39:53.858Z,0
2019-02-27T00:40:54.433Z,0
2019-02-27T00:41:55.050Z,0
2019-02-27T00:42:55.627Z,0
2019-02-27T00:43:56.199Z,0
2019-02-27T00:44:56.779Z,0
2019-02-27T00:45:57.402Z,0
2019-02-27T00:46:57.974Z,0
2019-02-27T00:47:58.548Z,0
2019-02-27T00:48:59.813Z,0
2019-02-27T00:49:59.734Z,0
2019-02-27T00:51:00.360Z,0
2019-02-27T00:52:01.136Z,0
2019-02-27T00:53:01.711Z,0
2019-02-27T00:54:02.283Z,0
2019-02-27T00:55:04.757Z,0
2019-02-27T00:56:04.479Z,0
2019-02-27T00:57:05.105Z,0
2019-02-27T00:58:05.678Z,0
2019-02-27T00:59:06.253Z,0
2019-02-27T01:00:07.191Z,0
2019-02-27T01:01:10.050Z,0
2019-02-27T01:02:09.320Z,0
2019-02-27T01:03:09.897Z,0
2019-02-27T01:04:10.514Z,0
2019-02-27T01:05:11.129Z,0
2019-02-27T01:06:12.263Z,0
2019-02-27T01:07:13.270Z,0
2019-02-27T01:08:13.846Z,0
2019-02-27T01:09:14.468Z,0
2019-02-27T01:10:15.092Z,0
2019-02-27T01:11:18.181Z,0
2019-02-27T01:12:17.235Z,0
2019-02-27T01:13:17.808Z,0
2019-02-27T01:14:18.379Z,0
2019-02-27T01:15:18.954Z,0
2019-02-27T01:16:19.526Z,0
2019-02-27T01:17:20.908Z,0
2019-02-27T01:18:21.671Z,0
2019-02-27T01:19:22.246Z,0
2019-02-27T01:20:22.820Z,0
2019-02-27T01:21:23.393Z,0
2019-02-27T01:22:23.967Z,0
2019-02-27T01:23:24.547Z,0
2019-02-27T01:24:25.137Z,0
2019-02-27T01:25:25.749Z,0
2019-02-27T01:26:30.638Z,0
2019-02-27T01:27:27.882Z,0
2019-02-27T01:28:28.507Z,0
2019-02-27T01:29:29.126Z,0
2019-02-27T01:30:29.700Z,0
2019-02-27T01:31:30.275Z,0
2019-02-27T01:32:31.151Z,0
2019-02-27T01:33:32.232Z,0
2019-02-27T01:34:33.800Z,0
2019-02-27T01:35:34.374Z,0
2019-02-27T01:36:34.950Z,0
2019-02-27T01:37:35.525Z,0
2019-02-27T01:38:37.998Z,0
2019-02-27T01:39:37.666Z,0
2019-02-27T01:40:38.241Z,0
2019-02-27T01:41:38.817Z,0
2019-02-27T01:42:39.383Z,0
2019-02-27T01:43:40.701Z,0
2019-02-27T01:44:44.097Z,0
2019-02-27T01:45:42.855Z,0
2019-02-27T01:46:43.429Z,0
2019-02-27T01:47:44.052Z,0
2019-02-27T01:48:44.625Z,0
2019-02-27T01:49:48.967Z,0
2019-02-27T01:50:46.817Z,0
2019-02-27T01:51:47.390Z,0
2019-02-27T01:52:47.964Z,0
2019-02-27T01:53:48.536Z,0
2019-02-27T01:54:49.567Z,0
2019-02-27T01:55:50.129Z,0
2019-02-27T01:56:50.753Z,0
2019-02-27T01:57:51.330Z,0
2019-02-27T01:58:51.905Z,0
2019-02-27T01:59:52.481Z,0
2019-02-27T02:00:56.032Z,0
2019-02-27T02:01:54.622Z,0
2019-02-27T02:02:55.199Z,0
2019-02-27T02:03:55.770Z,0
2019-02-27T02:04:56.394Z,0
2019-02-27T02:05:59.184Z,0
2019-02-27T02:06:57.582Z,0
2019-02-27T02:07:58.158Z,0
2019-02-27T02:08:58.734Z,0
2019-02-27T02:09:59.358Z,0
2019-02-27T02:11:01.462Z,0
2019-02-27T02:12:01.500Z,0
2019-02-27T02:13:02.075Z,0
2019-02-27T02:14:02.650Z,0
2019-02-27T02:15:03.228Z,0
2019-02-27T02:16:03.798Z,0
2019-02-27T02:17:04.996Z,0
2019-02-27T02:18:05.989Z,0
2019-02-27T02:19:06.603Z,0
2019-02-27T02:20:07.183Z,0
2019-02-27T02:21:07.800Z,0
2019-02-27T02:22:09.046Z,0
2019-02-27T02:23:14.011Z,0
2019-02-27T02:24:10.294Z,0
2019-02-27T02:25:10.868Z,0
2019-02-27T02:26:11.493Z,0
2019-02-27T02:27:12.066Z,0
2019-02-27T02:28:14.681Z,0
2019-02-27T02:29:14.261Z,0
2019-02-27T02:30:14.883Z,0
2019-02-27T02:31:15.415Z,0
2019-02-27T02:32:17.490Z,0
2019-02-27T02:33:17.607Z,0
2019-02-27T02:34:18.193Z,0
2019-02-27T02:35:18.758Z,0
2019-02-27T02:36:25.098Z,0
2019-02-27T02:37:20.902Z,0
2019-02-27T02:38:21.527Z,0
2019-02-27T02:39:22.102Z,0
2019-02-27T02:40:22.676Z,0
2019-02-27T02:41:23.249Z,0
2019-02-27T02:42:24.583Z,0
2019-02-27T02:43:25.440Z,0
2019-02-27T02:44:26.021Z,0
2019-02-27T02:45:32.811Z,0
2019-02-27T02:46:28.196Z,0
2019-02-27T02:47:28.771Z,0
2019-02-27T02:48:31.022Z,0
2019-02-27T02:49:30.912Z,0
2019-02-27T02:50:31.686Z,0
2019-02-27T02:51:32.260Z,0
2019-02-27T02:52:32.885Z,0
2019-02-27T02:53:33.460Z,0
2019-02-27T02:54:37.542Z,0
2019-02-27T02:55:35.649Z,0
2019-02-27T02:56:36.257Z,0
2019-02-27T02:57:37.073Z,0
2019-02-27T02:58:37.457Z,0
2019-02-27T02:59:38.116Z,0
2019-02-27T03:00:39.294Z,0
2019-02-27T03:01:39.924Z,0
2019-02-27T03:02:40.550Z,0
2019-02-27T03:03:41.122Z,0
2019-02-27T03:04:47.860Z,0
2019-02-27T03:05:43.405Z,0
2019-02-27T03:06:43.979Z,0
2019-02-27T03:07:45.556Z,0
2019-02-27T03:08:46.121Z,0
2019-02-27T03:09:46.696Z,0
2019-02-27T03:10:47.270Z,0
2019-02-27T03:11:53.991Z,0
2019-02-27T03:12:48.459Z,0
2019-02-27T03:13:49.076Z,0
2019-02-27T03:14:53.133Z,0
2019-02-27T03:15:51.268Z,0
2019-02-27T03:16:51.840Z,0
2019-02-27T03:17:54.712Z,0
2019-02-27T03:18:54.077Z,0
2019-02-27T03:19:54.650Z,0
2019-02-27T03:20:55.224Z,0
2019-02-27T03:21:55.799Z,0
2019-02-27T03:22:56.408Z,0
2019-02-27T03:23:56.945Z,0
2019-02-27T03:25:03.602Z,0
2019-02-27T03:25:59.084Z,0
2019-02-27T03:26:59.662Z,0
2019-02-27T03:28:04.667Z,0
2019-02-27T03:29:01.799Z,0
2019-02-27T03:30:02.373Z,0
2019-02-27T03:31:02.946Z,0
2019-02-27T03:32:03.523Z,0
2019-02-27T03:33:04.093Z,0
2019-02-27T03:34:08.041Z,0
2019-02-27T03:35:06.318Z,0
2019-02-27T03:36:06.855Z,0
2019-02-27T03:37:13.191Z,0
2019-02-27T03:38:09.047Z,0
2019-02-27T03:39:09.665Z,0
2019-02-27T03:40:11.827Z,0
2019-02-27T03:41:11.908Z,0
2019-02-27T03:42:12.524Z,0
2019-02-27T03:43:13.097Z,0
2019-02-27T03:44:13.675Z,0
2019-02-27T03:45:14.245Z,0
2019-02-27T03:46:14.825Z,0
2019-02-27T03:47:16.719Z,0
2019-02-27T03:48:16.006Z,0
2019-02-27T03:49:16.579Z,0
2019-02-27T03:50:17.158Z,0
2019-02-27T03:51:17.771Z,0
2019-02-27T03:52:18.396Z,0
2019-02-27T03:53:19.019Z,0
2019-02-27T03:54:21.388Z,0
2019-02-27T03:55:21.157Z,0
2019-02-27T03:56:21.779Z,0
2019-02-27T03:57:22.405Z,0
2019-02-27T03:58:22.981Z,0
2019-02-27T03:59:23.552Z,0
2019-02-27T04:00:24.131Z,0
2019-02-27T04:01:30.241Z,0
2019-02-27T04:02:26.308Z,0
2019-02-27T04:03:26.883Z,0
2019-02-27T04:04:30.581Z,0
2019-02-27T04:05:29.077Z,0
2019-02-27T04:06:29.653Z,0
2019-02-27T04:07:31.811Z,0
2019-02-27T04:08:31.797Z,0
2019-02-27T04:09:32.367Z,0
2019-02-27T04:10:32.939Z,0
2019-02-27T04:11:33.514Z,0
2019-02-27T04:12:34.287Z,0
2019-02-27T04:13:34.861Z,0
2019-02-27T04:14:40.195Z,0
2019-02-27T04:15:37.001Z,0
2019-02-27T04:16:38.193Z,0
2019-02-27T04:17:38.797Z,0
2019-02-27T04:18:39.419Z,0
2019-02-27T04:19:40.473Z,0
2019-02-27T04:20:41.125Z,0
2019-02-27T04:21:41.700Z,0
2019-02-27T04:22:42.273Z,0
2019-02-27T04:23:47.792Z,0
2019-02-27T04:24:44.426Z,0
2019-02-27T04:25:45.036Z,0
2019-02-27T04:26:45.619Z,0
2019-02-27T04:27:46.192Z,0
2019-02-27T04:28:46.759Z,0
2019-02-27T04:29:47.396Z,0
2019-02-27T04:30:51.022Z,0
2019-02-27T04:31:49.526Z,0
2019-02-27T04:32:50.153Z,0
2019-02-27T04:33:50.723Z,0
2019-02-27T04:34:51.298Z,0
2019-02-27T04:35:51.920Z,0
2019-02-27T04:36:52.496Z,0
2019-02-27T04:37:54.381Z,0
2019-02-27T04:38:54.635Z,0
2019-02-27T04:39:55.209Z,0
2019-02-27T04:40:55.783Z,0
2019-02-27T04:41:56.356Z,0
2019-02-27T04:42:59.162Z,0
2019-02-27T04:43:58.548Z,0
2019-02-27T04:44:59.122Z,0
2019-02-27T04:45:59.695Z,0
2019-02-27T04:47:00.276Z,0
2019-02-27T04:48:00.846Z,0
2019-02-27T04:49:04.051Z,0
2019-02-27T04:50:02.983Z,0
2019-02-27T04:51:03.558Z,0
2019-02-27T04:52:04.181Z,0
2019-02-27T04:53:04.805Z,0
2019-02-27T04:54:07.330Z,0
2019-02-27T04:55:06.947Z,0
2019-02-27T04:56:07.524Z,0
2019-02-27T04:57:08.097Z,0
2019-02-27T04:58:09.553Z,0
2019-02-27T04:59:10.181Z,0
2019-02-27T05:00:10.757Z,0
2019-02-27T05:01:11.381Z,0
2019-02-27T05:02:12.071Z,0
2019-02-27T05:03:13.572Z,0
2019-02-27T05:04:14.146Z,0
2019-02-27T05:05:14.723Z,0
2019-02-27T05:06:15.327Z,0
2019-02-27T05:07:20.115Z,0
2019-02-27T05:08:17.487Z,0
2019-02-27T05:09:18.111Z,0
2019-02-27T05:10:18.683Z,0
2019-02-27T05:11:19.258Z,0
2019-02-27T05:12:19.832Z,0
2019-02-27T05:13:20.873Z,0
2019-02-27T05:14:21.924Z,0
2019-02-27T05:15:22.499Z,0
2019-02-27T05:16:23.072Z,0
2019-02-27T05:17:23.647Z,0
2019-02-27T05:18:24.269Z,0
2019-02-27T05:19:24.842Z,0
2019-02-27T05:20:25.413Z,0
2019-02-27T05:21:25.986Z,0
2019-02-27T05:22:26.762Z,0
2019-02-27T05:23:27.831Z,0
2019-02-27T05:24:28.457Z,0
2019-02-27T05:25:29.029Z,0
2019-02-27T05:26:29.653Z,0
2019-02-27T05:27:30.230Z,0
2019-02-27T05:28:32.106Z,0
2019-02-27T05:29:32.423Z,0
2019-02-27T05:30:32.997Z,0
2019-02-27T05:31:33.622Z,0
2019-02-27T05:32:34.196Z,0
2019-02-27T05:33:36.481Z,0
2019-02-27T05:34:36.391Z,0
2019-02-27T05:35:36.964Z,0
2019-02-27T05:36:37.538Z,0
2019-02-27T05:37:39.255Z,0
2019-02-27T05:38:40.981Z,0
2019-02-27T05:39:41.297Z,0
2019-02-27T05:40:41.871Z,0
2019-02-27T05:41:42.449Z,0
2019-02-27T05:42:43.109Z,0
2019-02-27T05:43:47.543Z,0
2019-02-27T05:44:45.352Z,0
2019-02-27T05:45:45.925Z,0
2019-02-27T05:46:46.497Z,0
2019-02-27T05:47:47.074Z,0
2019-02-27T05:48:47.737Z,0
2019-02-27T05:49:48.311Z,0
2019-02-27T05:50:48.884Z,0
2019-02-27T05:51:49.503Z,0
2019-02-27T05:52:50.078Z,0
2019-02-27T05:53:50.652Z,0
2019-02-27T05:54:51.277Z,0
2019-02-27T05:55:51.848Z,0
2019-02-27T05:56:52.421Z,0
2019-02-27T05:57:52.999Z,0
2019-02-27T05:58:55.887Z,0
2019-02-27T05:59:55.185Z,0
2019-02-27T06:00:55.763Z,0
2019-02-27T06:01:56.335Z,0
2019-02-27T06:02:56.976Z,0
2019-02-27T06:03:57.509Z,0
2019-02-27T06:04:59.075Z,0
2019-02-27T06:05:59.694Z,0
2019-02-27T06:07:00.270Z,0
2019-02-27T06:08:02.331Z,0
2019-02-27T06:09:02.410Z,0
2019-02-27T06:10:03.077Z,0
2019-02-27T06:11:03.674Z,0
2019-02-27T06:12:06.991Z,0
2019-02-27T06:13:05.815Z,0
2019-02-27T06:14:06.391Z,0
2019-02-27T06:15:06.965Z,0
2019-02-27T06:16:09.229Z,0
2019-02-27T06:17:10.159Z,0
2019-02-27T06:18:10.673Z,0
2019-02-27T06:19:11.246Z,0
2019-02-27T06:20:11.818Z,0
2019-02-27T06:21:13.399Z,0
2019-02-27T06:22:13.959Z,0
2019-02-27T06:23:14.532Z,0
2019-02-27T06:24:15.158Z,0
2019-02-27T06:25:21.926Z,0
2019-02-27T06:26:17.299Z,0
2019-02-27T06:27:17.924Z,0
2019-02-27T06:28:19.340Z,0
2019-02-27T06:29:23.299Z,0
2019-02-27T06:30:21.580Z,0
2019-02-27T06:31:22.305Z,0
2019-02-27T06:32:23.078Z,0
2019-02-27T06:33:23.650Z,0
2019-02-27T06:34:24.824Z,0
2019-02-27T06:35:25.794Z,0
2019-02-27T06:36:26.368Z,0
2019-02-27T06:37:26.944Z,0
2019-02-27T06:38:27.517Z,0
2019-02-27T06:39:28.092Z,0
2019-02-27T06:40:28.667Z,0
2019-02-27T06:41:29.248Z,0
2019-02-27T06:42:29.846Z,0
2019-02-27T06:43:30.439Z,0
2019-02-27T06:44:31.062Z,0
2019-02-27T06:45:31.637Z,0
2019-02-27T06:46:32.259Z,0
2019-02-27T06:47:33.066Z,0
2019-02-27T06:48:33.445Z,0
2019-02-27T06:49:34.019Z,0
2019-02-27T06:50:34.591Z,0
2019-02-27T06:51:35.783Z,0
2019-02-27T06:52:36.775Z,0
2019-02-27T06:53:37.350Z,0
2019-02-27T06:54:37.926Z,0
2019-02-27T06:55:38.500Z,0
2019-02-27T06:56:39.074Z,0
2019-02-27T06:57:41.318Z,0
2019-02-27T06:58:41.215Z,0
2019-02-27T06:59:41.790Z,0
2019-02-27T07:00:42.377Z,0
2019-02-27T07:01:45.067Z,0
2019-02-27T07:02:44.542Z,0
2019-02-27T07:03:45.168Z,0
2019-02-27T07:04:45.742Z,0
2019-02-27T07:05:48.135Z,0
2019-02-27T07:06:48.034Z,0
2019-02-27T07:07:48.621Z,0
2019-02-27T07:08:49.283Z,0
2019-02-27T07:09:54.912Z,0
2019-02-27T07:10:58.973Z,0
2019-02-27T07:11:57.056Z,0
2019-02-27T07:12:57.629Z,0
2019-02-27T07:13:58.204Z,0
2019-02-27T07:14:58.779Z,0
2019-02-27T07:15:59.387Z,0
2019-02-27T07:16:59.979Z,0
2019-02-27T07:18:00.556Z,0
2019-02-27T07:19:01.171Z,0
2019-02-27T07:20:01.744Z,0
2019-02-27T07:21:02.318Z,0
2019-02-27T07:22:02.890Z,0
2019-02-27T07:23:03.467Z,0
2019-02-27T07:24:04.037Z,0
2019-02-27T07:25:06.684Z,0
2019-02-27T07:26:06.227Z,0
2019-02-27T07:27:06.801Z,0
2019-02-27T07:28:09.170Z,0
2019-02-27T07:29:08.989Z,0
2019-02-27T07:30:09.621Z,0
2019-02-27T07:31:10.191Z,0
2019-02-27T07:32:10.762Z,0
2019-02-27T07:33:11.351Z,0
2019-02-27T07:34:14.267Z,0
2019-02-27T07:35:13.475Z,0
2019-02-27T07:36:14.050Z,0
2019-02-27T07:37:14.624Z,0
2019-02-27T07:38:15.196Z,0
2019-02-27T07:39:15.771Z,0
2019-02-27T07:40:16.345Z,0
2019-02-27T07:41:20.198Z,0
2019-02-27T07:42:18.490Z,0
2019-02-27T07:43:19.062Z,0
2019-02-27T07:44:19.638Z,0
2019-02-27T07:45:22.430Z,0
2019-02-27T07:46:22.442Z,0
2019-02-27T07:47:22.445Z,0
2019-02-27T07:48:23.019Z,0
2019-02-27T07:49:23.595Z,0
2019-02-27T07:50:24.217Z,0
2019-02-27T07:51:24.790Z,0
2019-02-27T07:52:25.363Z,0
2019-02-27T07:53:25.937Z,0
2019-02-27T07:54:28.840Z,0
2019-02-27T07:55:28.581Z,0
2019-02-27T07:56:28.741Z,0
2019-02-27T07:57:29.312Z,0
2019-02-27T07:58:33.817Z,0
2019-02-27T07:59:31.455Z,0
2019-02-27T08:00:32.078Z,0
2019-02-27T08:01:32.656Z,0
2019-02-27T08:02:33.719Z,0
2019-02-27T08:03:34.845Z,0
2019-02-27T08:04:35.421Z,0
2019-02-27T08:05:35.990Z,0
2019-02-27T08:06:37.814Z,0
2019-02-27T08:07:38.132Z,0
2019-02-27T08:08:38.707Z,0
2019-02-27T08:09:39.333Z,0
2019-02-27T08:10:39.906Z,0
2019-02-27T08:11:40.481Z,0
2019-02-27T08:12:41.099Z,0
2019-02-27T08:13:41.674Z,0
2019-02-27T08:14:42.248Z,0
2019-02-27T08:15:42.822Z,0
2019-02-27T08:16:43.393Z,0
2019-02-27T08:17:44.048Z,0
2019-02-27T08:18:44.639Z,0
2019-02-27T08:19:45.968Z,0
2019-02-27T08:20:45.825Z,0
2019-02-27T08:21:46.451Z,0
2019-02-27T08:22:47.028Z,0
2019-02-27T08:23:47.644Z,0
2019-02-27T08:24:48.218Z,0
2019-02-27T08:25:48.790Z,0
2019-02-27T08:26:49.364Z,0
2019-02-27T08:27:49.938Z,0
2019-02-27T08:28:50.512Z,0
2019-02-27T08:29:51.087Z,0
2019-02-27T08:30:51.705Z,0
2019-02-27T08:31:52.277Z,0
2019-02-27T08:32:52.849Z,0
2019-02-27T08:33:53.421Z,0
2019-02-27T08:34:54.003Z,0
2019-02-27T08:35:54.618Z,0
2019-02-27T08:36:55.203Z,0
2019-02-27T08:38:02.467Z,0
2019-02-27T08:38:56.383Z,0
2019-02-27T08:39:56.958Z,0
2019-02-27T08:40:58.266Z,0
2019-02-27T08:42:03.378Z,0
2019-02-27T08:42:59.601Z,0
2019-02-27T08:44:00.176Z,0
2019-02-27T08:45:00.750Z,0
2019-02-27T08:46:02.436Z,0
2019-02-27T08:47:04.100Z,0
2019-02-27T08:48:03.624Z,0
2019-02-27T08:49:04.177Z,0
2019-02-27T08:50:04.749Z,0
2019-02-27T08:51:08.461Z,0
2019-02-27T08:52:08.408Z,0
2019-02-27T08:53:07.500Z,0
2019-02-27T08:54:08.071Z,0
2019-02-27T08:55:18.417Z,0
2019-02-27T08:56:12.430Z,0
2019-02-27T08:57:11.782Z,0
2019-02-27T08:58:12.402Z,0
2019-02-27T08:59:12.976Z,0
2019-02-27T09:00:14.362Z,0
2019-02-27T09:01:15.118Z,0
2019-02-27T09:02:15.692Z,0
2019-02-27T09:03:20.272Z,0
2019-02-27T09:04:17.883Z,0
2019-02-27T09:05:20.065Z,0
2019-02-27T09:06:20.024Z,0
2019-02-27T09:07:20.597Z,0
2019-02-27T09:08:21.173Z,0
2019-02-27T09:09:21.791Z,0
2019-02-27T09:10:23.132Z,0
2019-02-27T09:11:24.136Z,0
2019-02-27T09:12:24.707Z,0
2019-02-27T09:13:25.328Z,0
2019-02-27T09:14:25.904Z,0
2019-02-27T09:15:26.479Z,0
2019-02-27T09:16:27.054Z,0
2019-02-27T09:17:27.920Z,0
2019-02-27T09:18:28.461Z,0
2019-02-27T09:19:29.037Z,0
2019-02-27T09:20:29.608Z,0
2019-02-27T09:21:30.182Z,0
2019-02-27T09:22:30.760Z,0
2019-02-27T09:23:31.377Z,0
2019-02-27T09:24:31.989Z,0
2019-02-27T09:25:32.585Z,0
2019-02-27T09:26:35.987Z,0
2019-02-27T09:27:35.343Z,0
2019-02-27T09:28:35.960Z,0
2019-02-27T09:29:36.585Z,0
2019-02-27T09:30:37.163Z,0
2019-02-27T09:31:38.555Z,0
2019-02-27T09:32:38.401Z,0
2019-02-27T09:33:39.262Z,0
2019-02-27T09:34:39.807Z,0
2019-02-27T09:35:40.432Z,0
2019-02-27T09:36:43.294Z,0
2019-02-27T09:37:41.622Z,0
2019-02-27T09:38:42.197Z,0
2019-02-27T09:39:42.771Z,0
2019-02-27T09:40:43.391Z,0
2019-02-27T09:41:46.883Z,0
2019-02-27T09:42:45.579Z,0
2019-02-27T09:43:46.158Z,0
2019-02-27T09:44:46.727Z,0
2019-02-27T09:45:47.303Z,0
2019-02-27T09:46:49.919Z,0
2019-02-27T09:47:49.491Z,0
2019-02-27T09:48:50.064Z,0
2019-02-27T09:49:50.640Z,0
2019-02-27T09:50:51.215Z,0
2019-02-27T09:51:55.927Z,45
2019-02-27T09:52:53.361Z,60
2019-02-27T09:53:53.990Z,65
2019-02-27T09:54:54.886Z,60
2019-02-27T09:55:55.457Z,80
2019-02-27T09:56:56.037Z,50
2019-02-27T09:57:56.618Z,70
2019-02-27T09:58:57.196Z,75
2019-02-27T09:59:57.775Z,75
2019-02-27T10:01:00.324Z,75
2019-02-27T10:01:59.925Z,70
2019-02-27T10:03:00.528Z,80
2019-02-27T10:04:01.132Z,80
2019-02-27T10:05:03.241Z,80
2019-02-27T10:06:03.332Z,80
2019-02-27T10:07:03.911Z,80
2019-02-27T10:08:04.540Z,80
2019-02-27T10:09:05.119Z,80
2019-02-27T10:10:10.177Z,80
2019-02-27T10:11:07.325Z,85
2019-02-27T10:12:07.906Z,85
2019-02-27T10:13:08.485Z,95
2019-02-27T10:14:09.067Z,95
2019-02-27T10:15:09.644Z,95
2019-02-27T10:16:10.223Z,90
2019-02-27T10:17:10.804Z,90
2019-02-27T10:18:11.382Z,125
2019-02-27T10:19:11.960Z,110
2019-02-27T10:20:12.542Z,125
2019-02-27T10:21:13.120Z,120
2019-02-27T10:22:13.701Z,100
2019-02-27T10:23:14.329Z,95
2019-02-27T10:24:14.910Z,95
2019-02-27T10:25:15.538Z,100
2019-02-27T10:26:16.618Z,100
2019-02-27T10:27:17.694Z,140
2019-02-27T10:28:18.272Z,135
2019-02-27T10:29:19.077Z,140
2019-02-27T10:30:19.650Z,155
2019-02-27T10:31:20.228Z,150
2019-02-27T10:32:20.809Z,175
2019-02-27T10:33:21.389Z,170
2019-02-27T10:34:21.970Z,160
2019-02-27T10:35:23.088Z,150
2019-02-27T10:36:23.175Z,155
2019-02-27T10:37:23.899Z,105
2019-02-27T10:38:26.129Z,100
2019-02-27T10:39:26.095Z,105
2019-02-27T10:40:26.674Z,115
2019-02-27T10:41:27.306Z,100
2019-02-27T10:42:27.886Z,90
2019-02-27T10:43:28.467Z,85
2019-02-27T10:44:29.047Z,85
2019-02-27T10:45:29.630Z,95
2019-02-27T10:46:30.252Z,95
2019-02-27T10:47:30.881Z,90
2019-02-27T10:48:31.463Z,100
2019-02-27T10:49:32.045Z,95
2019-02-27T10:50:35.392Z,95
2019-02-27T10:51:34.198Z,155
2019-02-27T10:52:34.780Z,130
2019-02-27T10:53:35.361Z,145
2019-02-27T10:54:37.003Z,250
2019-02-27T10:55:37.523Z,245
2019-02-27T10:56:38.099Z,215
2019-02-27T10:57:38.679Z,175
2019-02-27T10:58:39.260Z,235
2019-02-27T10:59:39.893Z,185
2019-02-27T11:00:40.471Z,100
2019-02-27T11:01:41.052Z,85
2019-02-27T11:02:41.634Z,75
2019-02-27T11:03:42.213Z,75
2019-02-27T11:04:42.844Z,80
2019-02-27T11:05:43.424Z,90
2019-02-27T11:06:45.182Z,100
2019-02-27T11:07:46.523Z,100
2019-02-27T11:08:46.203Z,105
2019-02-27T11:09:46.786Z,105
2019-02-27T11:10:47.367Z,100
2019-02-27T11:11:48.745Z,115
2019-02-27T11:12:49.328Z,135
2019-02-27T11:13:52.127Z,150
2019-02-27T11:14:51.486Z,160
2019-02-27T11:15:52.071Z,175
2019-02-27T11:16:52.648Z,170
2019-02-27T11:17:53.542Z,255
2019-02-27T11:18:54.169Z,145
2019-02-27T11:19:54.802Z,215
2019-02-27T11:20:58.237Z,340
2019-02-27T11:21:58.373Z,355
2019-02-27T11:22:58.539Z,345
2019-02-27T11:23:59.122Z,340
2019-02-27T11:24:59.705Z,205
2019-02-27T11:26:00.291Z,340
2019-02-27T11:27:03.452Z,320
2019-02-27T11:28:02.448Z,335
2019-02-27T11:29:03.030Z,330
2019-02-27T11:30:03.619Z,325
2019-02-27T11:31:04.287Z,300
2019-02-27T11:32:04.872Z,305
2019-02-27T11:33:05.466Z,300
2019-02-27T11:34:07.863Z,285
2019-02-27T11:35:07.671Z,290
2019-02-27T11:36:08.256Z,280
2019-02-27T11:37:12.699Z,275
2019-02-27T11:38:10.468Z,265
2019-02-27T11:39:11.055Z,260
2019-02-27T11:40:11.638Z,260
2019-02-27T11:41:14.936Z,250
2019-02-27T11:42:13.846Z,240
2019-02-27T11:43:14.430Z,225
2019-02-27T11:44:15.017Z,225
2019-02-27T11:45:15.600Z,215
2019-02-27T11:46:16.183Z,205
2019-02-27T11:47:16.766Z,200
2019-02-27T11:48:17.400Z,190
2019-02-27T11:49:17.983Z,185
2019-02-27T11:50:18.757Z,180
2019-02-27T11:51:20.249Z,175
2019-02-27T11:52:20.910Z,170
2019-02-27T11:53:21.492Z,165
2019-02-27T11:54:22.077Z,160
2019-02-27T11:55:24.358Z,160
2019-02-27T11:56:24.239Z,165
2019-02-27T11:57:27.289Z,185
2019-02-27T11:58:26.396Z,220
2019-02-27T11:59:27.028Z,225
2019-02-27T12:00:27.654Z,190
2019-02-27T12:01:28.236Z,130
2019-02-27T12:02:31.261Z,105
2019-02-27T12:03:30.442Z,95
2019-02-27T12:04:31.073Z,90
2019-02-27T12:05:34.186Z,95
2019-02-27T12:06:32.278Z,105
2019-02-27T12:07:32.861Z,130
2019-02-27T12:08:33.443Z,130
2019-02-27T12:09:35.142Z,115
2019-02-27T12:10:35.600Z,130
2019-02-27T12:11:36.184Z,135
2019-02-27T12:12:36.765Z,125
2019-02-27T12:13:37.348Z,120
2019-02-27T12:14:37.931Z,150
2019-02-27T12:15:43.325Z,160
2019-02-27T12:16:39.186Z,195
2019-02-27T12:17:39.770Z,190
2019-02-27T12:18:40.352Z,170
2019-02-27T12:19:44.396Z,155
2019-02-27T12:20:42.612Z,165
2019-02-27T12:21:43.193Z,200
2019-02-27T12:22:43.775Z,220
2019-02-27T12:23:44.883Z,210
2019-02-27T12:24:45.443Z,190
2019-02-27T12:25:46.023Z,170
2019-02-27T12:26:46.605Z,170
2019-02-27T12:27:49.666Z,185
2019-02-27T12:28:52.478Z,230
2019-02-27T12:29:50.253Z,220
2019-02-27T12:30:50.885Z,225
2019-02-27T12:31:51.666Z,200
2019-02-27T12:32:55.793Z,165
2019-02-27T12:33:53.925Z,135
2019-02-27T12:34:54.504Z,120
2019-02-27T12:35:55.084Z,110
2019-02-27T12:36:55.665Z,90
2019-02-27T12:37:56.245Z,80
2019-02-27T12:38:56.827Z,65
2019-02-27T12:39:57.460Z,60
2019-02-27T12:40:58.999Z,55
2019-02-27T12:41:59.606Z,55
2019-02-27T12:43:00.185Z,55
2019-02-27T12:44:00.774Z,50
2019-02-27T12:45:01.378Z,45
2019-02-27T12:46:01.934Z,45
2019-02-27T12:47:05.569Z,40
2019-02-27T12:48:04.088Z,45
2019-02-27T12:49:04.670Z,50
2019-02-27T12:50:05.300Z,55
2019-02-27T12:51:05.879Z,60
2019-02-27T12:52:09.012Z,60
2019-02-27T12:53:07.075Z,60
2019-02-27T12:54:07.655Z,70
2019-02-27T12:55:08.233Z,80
2019-02-27T12:56:08.813Z,80
2019-02-27T12:57:09.399Z,75
2019-02-27T12:58:09.976Z,75
2019-02-27T12:59:10.555Z,70
2019-02-27T13:00:11.136Z,75
2019-02-27T13:01:16.167Z,85
2019-02-27T13:02:13.392Z,105
2019-02-27T13:03:14.028Z,135
2019-02-27T13:04:16.577Z,150
2019-02-27T13:05:16.180Z,165
2019-02-27T13:06:16.759Z,160
2019-02-27T13:07:17.389Z,155
2019-02-27T13:08:18.872Z,125
2019-02-27T13:09:19.544Z,115
2019-02-27T13:10:20.126Z,145
2019-02-27T13:11:20.707Z,120
2019-02-27T13:12:21.290Z,105
2019-02-27T13:13:23.265Z,130
2019-02-27T13:14:23.449Z,130
2019-02-27T13:15:24.181Z,120
2019-02-27T13:16:24.761Z,120
2019-02-27T13:17:25.342Z,120
2019-02-27T13:18:25.925Z,120
2019-02-27T13:19:26.510Z,120
2019-02-27T13:20:27.135Z,120
2019-02-27T13:21:27.717Z,120
2019-02-27T13:22:29.264Z,125
2019-02-27T13:23:29.871Z,125
2019-02-27T13:24:30.450Z,120
2019-02-27T13:25:31.181Z,125
2019-02-27T13:26:34.731Z,125
2019-02-27T13:27:33.338Z,130
2019-02-27T13:28:33.919Z,125
2019-02-27T13:29:34.501Z,125
2019-02-27T13:30:35.078Z,125
2019-02-27T13:31:35.659Z,130
2019-02-27T13:32:36.291Z,130
2019-02-27T13:33:38.903Z,130
2019-02-27T13:34:38.502Z,130
2019-02-27T13:35:39.132Z,125
2019-02-27T13:36:39.939Z,125
2019-02-27T13:37:43.779Z,125
2019-02-27T13:38:41.286Z,130
2019-02-27T13:39:41.889Z,130
2019-02-27T13:40:42.500Z,130
2019-02-27T13:41:45.534Z,135
2019-02-27T13:42:44.806Z,135
2019-02-27T13:43:45.442Z,135
2019-02-27T13:44:46.020Z,135
2019-02-27T13:45:47.691Z,140
2019-02-27T13:46:48.180Z,140
2019-02-27T13:47:48.762Z,145
2019-02-27T13:48:49.341Z,145
2019-02-27T13:49:49.928Z,145
2019-02-27T13:50:50.505Z,145
2019-02-27T13:51:51.087Z,145
2019-02-27T13:52:51.667Z,145
2019-02-27T13:53:52.251Z,150
2019-02-27T13:54:52.830Z,155
2019-02-27T13:55:53.670Z,155
2019-02-27T13:56:54.083Z,165
2019-02-27T13:57:58.746Z,165
2019-02-27T13:58:55.281Z,175
2019-02-27T13:59:55.861Z,180
2019-02-27T14:00:56.493Z,185
2019-02-27T14:01:57.122Z,195
2019-02-27T14:02:57.706Z,195
2019-02-27T14:03:58.303Z,200
2019-02-27T14:05:00.632Z,200
2019-02-27T14:05:59.489Z,205
2019-02-27T14:07:00.070Z,215
2019-02-27T14:08:00.652Z,215
2019-02-27T14:09:01.238Z,225
2019-02-27T14:10:01.823Z,225
2019-02-27T14:11:02.398Z,235
2019-02-27T14:12:02.986Z,240
2019-02-27T14:13:08.898Z,240
2019-02-27T14:14:05.140Z,255
2019-02-27T14:15:05.772Z,250
2019-02-27T14:16:06.358Z,265
2019-02-27T14:17:07.662Z,270
2019-02-27T14:18:08.615Z,280
2019-02-27T14:19:09.197Z,285
2019-02-27T14:20:09.782Z,295
2019-02-27T14:21:10.365Z,310
2019-02-27T14:22:10.996Z,325
2019-02-27T14:23:11.915Z,335
2019-02-27T14:24:13.157Z,330
2019-02-27T14:25:13.791Z,350
2019-02-27T14:26:14.391Z,335
2019-02-27T14:27:15.313Z,355
2019-02-27T14:28:18.327Z,365
2019-02-27T14:29:17.459Z,340
2019-02-27T14:30:18.092Z,350
2019-02-27T14:31:18.675Z,365
2019-02-27T14:32:19.259Z,380
2019-02-27T14:33:20.541Z,400
2019-02-27T14:34:21.263Z,400
2019-02-27T14:35:21.846Z,425
2019-02-27T14:36:22.481Z,410
2019-02-27T14:37:23.064Z,440
2019-02-27T14:38:23.649Z,530
2019-02-27T14:39:24.281Z,820